Terminal Aerodrome Forecast
Issued by NWS

Home | Current Version | Previous Version | Text Only | Print | Product List | Glossary On
Versions: 1 2 3 4 5 6 7 8 9 10 11 12 13
000
FTUS46 KSGX 031726
TAFPSP
TAF
KPSP 031726Z 0318/0418 33009KT P6SM SCT200
     FM032300 33014G22KT P6SM SCT200
     FM040700 VRB05KT P6SM SKC=

USA.gov is the U.S. government's official web portal to all federal, state and local government web resources and services.